Terminal Aerodrome Forecast
Issued by NWS

Home | Current Version | Previous Version | Text Only | Print | Product List | Glossary On
Versions: 1 2 3 4 5 6 7 8 9 10 11 12 13 14 15 16 17
000
FTUS43 KOAX 031133
TAFBFF
TAF
KBFF 031133Z 0312/0412 35017G25KT 4SM -SN SCT015 BKN025
     FM031600 34015G25KT P6SM VCSH SCT025 BKN040
     FM032200 34015G25KT 3SM -SN SCT015 BKN025
     FM040500 33010KT P6SM SCT060 BKN090=

USA.gov is the U.S. government's official web portal to all federal, state and local government web resources and services.